Time;durP1;ratioP1;P1;durP2;ratioP2;P2;SDS_P1;SDS_P2;PMS_P1;PMS_P2;Temp;Humidity;BMP_temperature;BMP_pressure;BME280_temperature;BME280_humidity;BME280_pressure;Samples;Min_cycle;Max_cycle;Signal;HPM_P1;HPM_P2
2023/11/25 00:02:21;;;;;;;6.57;0.90;;;;;;;;;;5039417;28;20133;-61
2023/11/25 00:04:50;;;;;;;3.15;0.95;;;;;;;;;;5054419;27;20287;-60
2023/11/25 00:07:17;;;;;;;4.93;0.63;;;;;;;;;;5054584;28;20063;-62
2023/11/25 00:09:46;;;;;;;4.55;0.90;;;;;;;;;;5052237;28;21209;-61
2023/11/25 00:12:14;;;;;;;6.28;1.10;;;;;;;;;;5044026;28;20112;-60
2023/11/25 00:14:41;;;;;;;2.88;1.00;;;;;;;;;;5040021;28;20077;-61
2023/11/25 00:17:08;;;;;;;4.13;0.73;;;;;;;;;;5037090;28;20060;-60
2023/11/25 00:19:35;;;;;;;7.03;0.73;;;;;;;;;;5061962;28;20216;-61
2023/11/25 00:22:01;;;;;;;6.72;0.90;;;;;;;;;;5036634;28;20091;-61
2023/11/25 00:24:28;;;;;;;3.72;0.55;;;;;;;;;;5030193;28;20048;-61
2023/11/25 00:26:55;;;;;;;5.55;1.13;;;;;;;;;;5036511;28;20187;-62
2023/11/25 00:29:23;;;;;;;3.70;0.93;;;;;;;;;;5037657;28;20068;-61
2023/11/25 00:31:54;;;;;;;6.85;0.80;;;;;;;;;;5038531;28;20052;-60
2023/11/25 00:34:22;;;;;;;4.65;0.88;;;;;;;;;;5004825;28;20053;-62
2023/11/25 00:36:48;;;;;;;5.45;0.93;;;;;;;;;;5028736;28;20053;-61
2023/11/25 00:39:15;;;;;;;5.80;0.80;;;;;;;;;;5011166;28;20057;-60
2023/11/25 00:41:42;;;;;;;4.25;0.95;;;;;;;;;;4996993;28;20061;-61
2023/11/25 00:44:08;;;;;;;4.63;0.98;;;;;;;;;;5040649;28;20045;-61
2023/11/25 00:46:38;;;;;;;3.45;0.70;;;;;;;;;;5052769;28;20077;-62
2023/11/25 00:49:05;;;;;;;8.05;1.33;;;;;;;;;;5037155;28;20072;-60
2023/11/25 00:51:31;;;;;;;5.63;0.80;;;;;;;;;;5027816;28;20049;-60
2023/11/25 00:53:58;;;;;;;6.03;0.82;;;;;;;;;;4982257;28;20060;-60
2023/11/25 00:56:25;;;;;;;9.07;1.38;;;;;;;;;;5016923;28;20192;-60
2023/11/25 00:58:52;;;;;;;7.15;1.08;;;;;;;;;;5034081;28;20145;-60
2023/11/25 01:01:20;;;;;;;5.88;1.23;;;;;;;;;;5019508;28;20071;-62
2023/11/25 01:03:48;;;;;;;6.90;1.17;;;;;;;;;;5031488;28;20053;-60
2023/11/25 01:06:14;;;;;;;6.20;1.23;;;;;;;;;;5054266;28;20479;-60
2023/11/25 01:08:41;;;;;;;9.98;1.00;;;;;;;;;;5056696;28;20052;-60
2023/11/25 01:11:08;;;;;;;3.75;0.93;;;;;;;;;;5040551;28;20224;-60
2023/11/25 01:13:35;;;;;;;5.18;0.88;;;;;;;;;;5048218;28;20036;-61
2023/11/25 01:16:01;;;;;;;6.30;0.95;;;;;;;;;;5033707;28;20149;-60
2023/11/25 01:18:28;;;;;;;8.05;1.55;;;;;;;;;;5043566;28;20052;-60
2023/11/25 01:20:56;;;;;;;6.72;1.35;;;;;;;;;;5070744;28;20079;-60
2023/11/25 01:23:23;;;;;;;4.43;0.88;;;;;;;;;;5033744;28;20044;-63
2023/11/25 01:25:50;;;;;;;6.05;0.85;;;;;;;;;;5041727;28;20148;-61
2023/11/25 01:28:16;;;;;;;6.32;0.98;;;;;;;;;;5036657;28;20088;-60
2023/11/25 01:30:44;;;;;;;3.53;0.85;;;;;;;;;;5052073;28;20049;-60
2023/11/25 01:33:12;;;;;;;3.47;0.65;;;;;;;;;;5045951;27;20166;-61
2023/11/25 01:35:39;;;;;;;6.83;0.97;;;;;;;;;;5033595;28;20060;-61
2023/11/25 01:38:07;;;;;;;2.85;0.60;;;;;;;;;;5037851;28;20064;-61
2023/11/25 01:40:33;;;;;;;6.65;0.80;;;;;;;;;;5020815;28;20126;-61
2023/11/25 01:43:00;;;;;;;4.63;0.70;;;;;;;;;;5017175;28;20163;-60
2023/11/25 01:45:27;;;;;;;4.97;0.80;;;;;;;;;;5034217;28;20080;-61
2023/11/25 01:47:56;;;;;;;2.95;0.60;;;;;;;;;;5036986;28;20056;-60
2023/11/25 01:50:24;;;;;;;4.80;0.68;;;;;;;;;;5061057;28;20079;-61
2023/11/25 01:52:53;;;;;;;6.63;0.82;;;;;;;;;;5036661;28;20118;-61
2023/11/25 01:55:24;;;;;;;3.05;0.98;;;;;;;;;;5036273;28;20171;-60
2023/11/25 01:57:51;;;;;;;0.20;0.20;;;;;;;;;;5040882;28;20052;-60
2023/11/25 02:00:19;;;;;;;4.43;0.85;;;;;;;;;;5043809;28;20060;-60
2023/11/25 02:02:49;;;;;;;5.53;1.40;;;;;;;;;;5022269;28;20108;-60
2023/11/25 02:05:16;;;;;;;5.57;0.75;;;;;;;;;;5034533;28;20150;-61
2023/11/25 02:07:43;;;;;;;3.00;0.70;;;;;;;;;;5033050;28;20067;-60
2023/11/25 02:10:11;;;;;;;8.30;1.27;;;;;;;;;;5037500;28;20064;-60
2023/11/25 02:12:41;;;;;;;5.90;0.53;;;;;;;;;;5011308;28;20060;-60
2023/11/25 02:15:11;;;;;;;4.75;1.00;;;;;;;;;;5037290;28;20113;-60
2023/11/25 02:17:38;;;;;;;6.75;0.70;;;;;;;;;;5038668;28;20048;-60
2023/11/25 02:20:08;;;;;;;11.40;1.52;;;;;;;;;;5038717;28;20057;-61
2023/11/25 02:22:36;;;;;;;4.07;0.63;;;;;;;;;;5041208;28;20086;-61
2023/11/25 02:25:05;;;;;;;6.27;1.23;;;;;;;;;;5036287;28;20499;-61
2023/11/25 02:27:34;;;;;;;7.72;1.25;;;;;;;;;;5042369;28;20061;-60
2023/11/25 02:30:02;;;;;;;2.80;0.68;;;;;;;;;;5037011;28;20056;-60
2023/11/25 02:32:29;;;;;;;3.35;0.75;;;;;;;;;;5037642;28;20063;-61
2023/11/25 02:34:55;;;;;;;7.05;1.48;;;;;;;;;;5067008;28;20069;-60
2023/11/25 02:37:24;;;;;;;2.97;0.75;;;;;;;;;;5044198;28;20059;-60
2023/11/25 02:39:51;;;;;;;;;;;;;;;;;;5029727;28;20053;-61
2023/11/25 02:42:19;;;;;;;2.85;0.75;;;;;;;;;;5059353;28;19952;-60
2023/11/25 02:44:46;;;;;;;3.10;0.60;;;;;;;;;;5037587;28;20053;-60
2023/11/25 02:47:13;;;;;;;0.95;0.50;;;;;;;;;;5034417;28;20079;-60
2023/11/25 02:49:40;;;;;;;5.35;0.82;;;;;;;;;;5029461;28;20049;-60
2023/11/25 02:52:07;;;;;;;8.02;1.15;;;;;;;;;;5032003;28;20185;-60
2023/11/25 02:54:34;;;;;;;2.60;0.73;;;;;;;;;;5035874;28;20172;-61
2023/11/25 02:57:00;;;;;;;7.60;0.93;;;;;;;;;;5037030;28;20155;-60
2023/11/25 02:59:28;;;;;;;4.40;0.80;;;;;;;;;;5030596;28;20171;-61
2023/11/25 03:01:58;;;;;;;4.35;0.77;;;;;;;;;;5045600;28;20102;-60
2023/11/25 03:04:26;;;;;;;9.38;0.93;;;;;;;;;;5018822;28;20107;-60
2023/11/25 03:06:53;;;;;;;8.20;0.90;;;;;;;;;;5036873;28;20060;-60
2023/11/25 03:09:20;;;;;;;7.97;1.02;;;;;;;;;;5067431;28;20090;-60
2023/11/25 03:11:47;;;;;;;7.40;1.08;;;;;;;;;;5037833;28;20135;-61
2023/11/25 03:14:15;;;;;;;8.98;1.30;;;;;;;;;;5019919;28;20135;-60
2023/11/25 03:16:43;;;;;;;5.63;0.85;;;;;;;;;;5038002;28;20096;-61
2023/11/25 03:19:10;;;;;;;2.67;0.75;;;;;;;;;;5040747;28;20067;-61
2023/11/25 03:21:37;;;;;;;4.03;0.80;;;;;;;;;;5042245;28;20094;-60
2023/11/25 03:24:07;;;;;;;5.38;1.08;;;;;;;;;;5047114;27;20150;-61
2023/11/25 03:26:34;;;;;;;6.03;1.05;;;;;;;;;;5038474;28;20060;-61
2023/11/25 03:29:00;;;;;;;3.75;0.68;;;;;;;;;;5048015;28;20076;-61
2023/11/25 03:31:27;;;;;;;4.85;0.60;;;;;;;;;;5040855;28;20059;-60
2023/11/25 03:33:55;;;;;;;5.55;0.98;;;;;;;;;;5028048;28;20075;-61
2023/11/25 03:36:22;;;;;;;7.60;0.90;;;;;;;;;;5032753;28;20144;-60
2023/11/25 03:38:50;;;;;;;10.27;1.20;;;;;;;;;;5019705;28;20111;-61
2023/11/25 03:41:17;;;;;;;8.43;1.23;;;;;;;;;;5015301;28;20049;-61
2023/11/25 03:43:45;;;;;;;5.20;0.93;;;;;;;;;;5017229;28;20064;-61
2023/11/25 03:46:13;;;;;;;11.02;1.10;;;;;;;;;;5007430;28;20056;-59
2023/11/25 03:48:39;;;;;;;3.47;1.00;;;;;;;;;;5022381;28;20061;-61
2023/11/25 03:51:10;;;;;;;7.40;1.20;;;;;;;;;;5024576;28;20052;-61
2023/11/25 03:53:37;;;;;;;10.18;1.35;;;;;;;;;;5040878;28;20107;-59
2023/11/25 03:56:03;;;;;;;2.50;0.60;;;;;;;;;;5034684;28;20067;-62
2023/11/25 03:58:30;;;;;;;7.25;0.90;;;;;;;;;;5046383;28;20358;-61
2023/11/25 04:00:57;;;;;;;5.82;0.82;;;;;;;;;;5062833;28;20114;-60
2023/11/25 04:03:23;;;;;;;7.55;1.08;;;;;;;;;;5044216;28;20131;-60
2023/11/25 04:05:52;;;;;;;7.10;1.02;;;;;;;;;;5028877;28;20049;-61
2023/11/25 04:08:21;;;;;;;4.05;0.50;;;;;;;;;;5033861;28;20081;-61
2023/11/25 04:10:47;;;;;;;7.20;0.85;;;;;;;;;;5040368;28;20132;-59
2023/11/25 04:13:15;;;;;;;5.30;0.80;;;;;;;;;;5063596;28;20105;-60
2023/11/25 04:15:41;;;;;;;8.45;0.80;;;;;;;;;;5039840;28;20048;-61
2023/11/25 04:18:08;;;;;;;7.57;1.20;;;;;;;;;;5064455;28;20254;-59
2023/11/25 04:20:34;;;;;;;7.28;0.85;;;;;;;;;;5046967;28;20143;-61
2023/11/25 04:23:05;;;;;;;7.90;0.93;;;;;;;;;;5046711;28;20143;-60
2023/11/25 04:25:34;;;;;;;5.97;0.70;;;;;;;;;;5055021;28;20060;-60
2023/11/25 04:28:00;;;;;;;;;;;;;;;;;;5040383;28;20059;-61
2023/11/25 04:30:27;;;;;;;10.02;1.25;;;;;;;;;;5044124;28;19925;-60
2023/11/25 04:32:54;;;;;;;8.50;1.10;;;;;;;;;;5057386;28;20059;-61
2023/11/25 04:35:21;;;;;;;3.60;0.70;;;;;;;;;;5006724;28;20087;-60
2023/11/25 04:37:48;;;;;;;5.70;0.88;;;;;;;;;;5040125;28;20140;-61
2023/11/25 04:40:15;;;;;;;5.03;0.80;;;;;;;;;;5032742;28;20053;-60
2023/11/25 04:42:44;;;;;;;5.10;1.07;;;;;;;;;;5043511;28;20141;-61
2023/11/25 04:45:15;;;;;;;7.57;1.05;;;;;;;;;;5030851;28;20064;-60
2023/11/25 04:47:43;;;;;;;2.30;0.75;;;;;;;;;;5034596;28;20115;-61
2023/11/25 04:50:10;;;;;;;2.88;0.60;;;;;;;;;;5032237;28;20165;-60
2023/11/25 04:52:37;;;;;;;1.75;0.45;;;;;;;;;;5040486;28;20140;-60
2023/11/25 04:55:04;;;;;;;11.95;1.05;;;;;;;;;;5032465;28;20106;-60
2023/11/25 04:57:31;;;;;;;6.13;0.90;;;;;;;;;;5039767;28;20061;-59
2023/11/25 04:59:59;;;;;;;8.70;0.70;;;;;;;;;;5038400;28;20087;-60
2023/11/25 05:02:25;;;;;;;1.98;0.88;;;;;;;;;;5059546;28;20141;-61
2023/11/25 05:04:52;;;;;;;6.60;0.82;;;;;;;;;;5035227;28;20072;-61
2023/11/25 05:07:19;;;;;;;1.73;0.60;;;;;;;;;;5042453;28;20048;-59
2023/11/25 05:09:46;;;;;;;2.97;0.57;;;;;;;;;;5041271;28;20060;-61
2023/11/25 05:12:14;;;;;;;12.00;1.20;;;;;;;;;;5039547;28;20060;-61
2023/11/25 05:14:41;;;;;;;4.27;0.70;;;;;;;;;;5035476;28;20098;-62
2023/11/25 05:17:09;;;;;;;2.80;0.60;;;;;;;;;;5046073;28;20049;-62
2023/11/25 05:19:36;;;;;;;4.15;0.93;;;;;;;;;;5043375;28;20049;-61
2023/11/25 05:22:04;;;;;;;3.47;0.77;;;;;;;;;;5036789;28;20061;-62
2023/11/25 05:24:30;;;;;;;1.60;0.38;;;;;;;;;;5033048;28;20076;-63
2023/11/25 05:26:57;;;;;;;2.75;0.28;;;;;;;;;;5057182;28;20056;-61
2023/11/25 05:29:24;;;;;;;3.00;0.80;;;;;;;;;;5057660;28;20142;-60
2023/11/25 05:31:51;;;;;;;2.40;0.68;;;;;;;;;;5077184;27;20151;-60
2023/11/25 05:34:20;;;;;;;2.10;0.38;;;;;;;;;;5032750;28;20102;-61
2023/11/25 05:36:46;;;;;;;3.67;0.50;;;;;;;;;;5057895;28;20055;-59
2023/11/25 05:39:13;;;;;;;6.63;0.70;;;;;;;;;;5039984;28;20083;-60
2023/11/25 05:41:40;;;;;;;1.83;0.40;;;;;;;;;;5060791;28;20056;-60
2023/11/25 05:44:09;;;;;;;4.28;0.50;;;;;;;;;;5023181;28;20053;-59
2023/11/25 05:46:36;;;;;;;2.10;0.80;;;;;;;;;;5022755;28;20059;-60
2023/11/25 05:49:03;;;;;;;2.00;0.73;;;;;;;;;;5038630;28;20145;-62
2023/11/25 05:51:36;;;;;;;5.18;0.60;;;;;;;;;;5040284;28;20118;-62
2023/11/25 05:54:02;;;;;;;1.52;0.43;;;;;;;;;;5035764;28;20117;-63
2023/11/25 05:56:29;;;;;;;4.28;0.47;;;;;;;;;;5035165;28;20082;-61
2023/11/25 05:58:56;;;;;;;4.28;0.45;;;;;;;;;;5058982;28;20156;-63
2023/11/25 06:01:23;;;;;;;1.85;0.52;;;;;;;;;;5036423;28;20157;-62
2023/11/25 06:03:52;;;;;;;2.85;0.40;;;;;;;;;;5009956;28;20135;-63
2023/11/25 06:06:18;;;;;;;;;;;;;;;;;;5036734;28;20049;-62
2023/11/25 06:08:47;;;;;;;5.13;0.80;;;;;;;;;;5037433;28;19950;-62
2023/11/25 06:11:19;;;;;;;2.63;0.45;;;;;;;;;;5035780;28;20049;-59
2023/11/25 06:13:46;;;;;;;0.73;0.38;;;;;;;;;;5021747;28;29879;-60
2023/11/25 06:16:13;;;;;;;4.35;0.50;;;;;;;;;;5030886;28;20053;-58
2023/11/25 06:18:40;;;;;;;0.73;0.30;;;;;;;;;;5038919;28;20052;-61
2023/11/25 06:21:06;;;;;;;1.23;0.30;;;;;;;;;;5034929;28;20040;-59
2023/11/25 06:23:33;;;;;;;5.25;0.65;;;;;;;;;;5024149;28;20073;-59
2023/11/25 06:26:01;;;;;;;4.13;0.40;;;;;;;;;;5053038;28;20072;-61
2023/11/25 06:28:28;;;;;;;1.40;0.63;;;;;;;;;;5029487;28;20068;-63
2023/11/25 06:30:55;;;;;;;3.50;0.50;;;;;;;;;;5035495;28;20111;-61
2023/11/25 06:33:24;;;;;;;7.93;0.60;;;;;;;;;;5036261;28;20053;-60
2023/11/25 06:35:51;;;;;;;2.13;0.55;;;;;;;;;;5035291;28;20056;-59
2023/11/25 06:38:17;;;;;;;1.83;0.38;;;;;;;;;;5036329;28;20325;-60
2023/11/25 06:40:44;;;;;;;1.70;0.30;;;;;;;;;;5035433;28;20140;-61
2023/11/25 06:43:12;;;;;;;3.20;0.70;;;;;;;;;;5038164;28;20149;-60
2023/11/25 06:45:40;;;;;;;2.28;0.35;;;;;;;;;;5031103;28;20049;-61
2023/11/25 06:48:07;;;;;;;0.98;0.35;;;;;;;;;;5032584;28;20053;-60
2023/11/25 06:50:34;;;;;;;2.10;0.70;;;;;;;;;;5036565;28;20451;-60
2023/11/25 06:53:01;;;;;;;1.30;0.25;;;;;;;;;;5035493;28;20052;-60
2023/11/25 06:55:28;;;;;;;2.70;0.50;;;;;;;;;;5029301;28;20084;-60
2023/11/25 06:57:55;;;;;;;2.30;0.50;;;;;;;;;;5038229;28;20106;-61
2023/11/25 07:00:23;;;;;;;2.45;0.45;;;;;;;;;;5049333;28;21094;-61
2023/11/25 07:02:50;;;;;;;1.52;0.40;;;;;;;;;;5020876;28;20053;-61
2023/11/25 07:05:21;;;;;;;0.80;0.32;;;;;;;;;;5006110;28;20053;-60
2023/11/25 07:07:48;;;;;;;1.98;0.98;;;;;;;;;;5033470;28;20064;-60
2023/11/25 07:10:14;;;;;;;5.95;1.13;;;;;;;;;;5023255;28;20045;-60
2023/11/25 07:12:41;;;;;;;3.05;0.60;;;;;;;;;;5016488;28;20096;-61
2023/11/25 07:15:09;;;;;;;1.25;0.50;;;;;;;;;;4996470;28;20069;-60
2023/11/25 07:17:37;;;;;;;4.78;1.00;;;;;;;;;;5017581;28;20113;-60
2023/11/25 07:20:13;;;;;;;0.85;0.45;;;;;;;;;;5021705;28;20053;-61
2023/11/25 07:22:40;;;;;;;4.80;0.63;;;;;;;;;;5008770;28;20144;-60
2023/11/25 07:25:11;;;;;;;2.13;0.40;;;;;;;;;;5006918;28;20136;-60
2023/11/25 07:27:38;;;;;;;2.90;0.60;;;;;;;;;;5004228;28;20061;-60
2023/11/25 07:30:08;;;;;;;3.05;0.55;;;;;;;;;;4997030;28;20125;-60
2023/11/25 07:32:37;;;;;;;1.85;0.70;;;;;;;;;;5001672;28;20053;-61
2023/11/25 07:35:07;;;;;;;1.13;0.40;;;;;;;;;;5008309;28;20055;-61
2023/11/25 07:37:36;;;;;;;6.28;0.93;;;;;;;;;;5018939;28;20079;-60
2023/11/25 07:40:08;;;;;;;;;;;;;;;;;;5013784;28;20207;-60
2023/11/25 07:42:35;;;;;;;0.30;0.30;;;;;;;;;;5016683;28;19925;-60
2023/11/25 07:45:02;;;;;;;1.25;0.50;;;;;;;;;;5009362;28;20080;-61
2023/11/25 07:47:31;;;;;;;1.85;0.43;;;;;;;;;;5036900;28;20057;-60
2023/11/25 07:50:02;;;;;;;0.35;0.20;;;;;;;;;;5028055;28;20069;-61
2023/11/25 07:52:30;;;;;;;0.47;0.20;;;;;;;;;;5056644;28;20057;-61
2023/11/25 07:54:56;;;;;;;3.00;0.40;;;;;;;;;;5007639;28;20049;-60
2023/11/25 07:57:24;;;;;;;1.08;0.30;;;;;;;;;;5023216;28;20164;-60
2023/11/25 07:59:51;;;;;;;2.05;0.60;;;;;;;;;;5027968;28;20061;-60
2023/11/25 08:02:19;;;;;;;2.08;0.40;;;;;;;;;;5023853;28;20136;-62
2023/11/25 08:04:46;;;;;;;5.07;0.52;;;;;;;;;;5020982;28;20060;-62
2023/11/25 08:07:16;;;;;;;1.63;0.50;;;;;;;;;;5033504;28;20566;-63
2023/11/25 08:09:46;;;;;;;2.72;0.70;;;;;;;;;;5021511;28;20053;-61
2023/11/25 08:12:16;;;;;;;0.68;0.38;;;;;;;;;;5016606;28;20060;-61
2023/11/25 08:14:43;;;;;;;1.60;0.52;;;;;;;;;;5019812;28;20247;-63
2023/11/25 08:17:10;;;;;;;2.60;0.22;;;;;;;;;;5028796;28;20065;-61
2023/11/25 08:19:43;;;;;;;0.60;0.20;;;;;;;;;;5022934;28;20208;-61
2023/11/25 08:22:16;;;;;;;2.78;0.47;;;;;;;;;;5019144;28;20048;-62
2023/11/25 08:24:43;;;;;;;0.20;0.20;;;;;;;;;;5021599;28;20448;-62
2023/11/25 08:27:13;;;;;;;1.80;0.50;;;;;;;;;;5021067;28;20133;-62
2023/11/25 08:29:42;;;;;;;0.85;0.38;;;;;;;;;;5026403;28;20053;-62
2023/11/25 08:32:08;;;;;;;0.60;0.50;;;;;;;;;;5017164;28;20064;-62
2023/11/25 08:34:35;;;;;;;5.90;1.77;;;;;;;;;;5023940;28;20143;-60
2023/11/25 08:37:02;;;;;;;11.25;1.80;;;;;;;;;;5043341;28;20081;-60
2023/11/25 08:39:32;;;;;;;1.58;0.77;;;;;;;;;;5037418;28;20053;-60
2023/11/25 08:42:02;;;;;;;3.45;1.00;;;;;;;;;;5024170;28;20067;-60
2023/11/25 08:44:29;;;;;;;1.60;0.50;;;;;;;;;;5001285;28;20226;-61
2023/11/25 08:46:59;;;;;;;0.85;0.32;;;;;;;;;;5048323;28;20163;-61
2023/11/25 08:49:26;;;;;;;1.10;0.50;;;;;;;;;;5039033;28;20054;-60
2023/11/25 08:51:53;;;;;;;5.05;0.65;;;;;;;;;;5046504;28;20084;-61
2023/11/25 08:54:20;;;;;;;2.60;0.57;;;;;;;;;;5020148;28;20628;-61
2023/11/25 08:56:51;;;;;;;1.80;0.52;;;;;;;;;;5020331;28;20050;-60
2023/11/25 08:59:20;;;;;;;2.70;0.60;;;;;;;;;;5017497;28;20057;-60
2023/11/25 09:01:48;;;;;;;1.42;0.60;;;;;;;;;;5038906;28;20154;-60
2023/11/25 09:04:19;;;;;;;2.30;0.47;;;;;;;;;;5045967;28;20051;-60
2023/11/25 09:06:47;;;;;;;2.20;0.50;;;;;;;;;;5051030;28;20072;-60
2023/11/25 09:09:19;;;;;;;1.23;0.73;;;;;;;;;;5073228;28;20048;-61
2023/11/25 09:11:53;;;;;;;1.65;0.40;;;;;;;;;;5072872;28;20075;-61
2023/11/25 09:14:20;;;;;;;1.90;0.43;;;;;;;;;;5045192;28;20109;-61
2023/11/25 09:16:50;;;;;;;1.13;0.43;;;;;;;;;;5069775;28;20059;-60
2023/11/25 09:19:31;;;;;;;1.58;0.40;;;;;;;;;;5046122;28;20080;-61
2023/11/25 09:22:04;;;;;;;1.10;0.43;;;;;;;;;;5030619;28;20096;-61
2023/11/25 09:24:30;;;;;;;0.93;0.60;;;;;;;;;;5059128;28;20064;-60
2023/11/25 09:27:03;;;;;;;3.33;0.32;;;;;;;;;;5040592;28;20048;-60
2023/11/25 09:29:30;;;;;;;1.75;0.57;;;;;;;;;;5039259;28;20071;-61
2023/11/25 09:31:59;;;;;;;13.50;2.03;;;;;;;;;;5060748;28;20106;-60
2023/11/25 09:34:25;;;;;;;7.05;1.77;;;;;;;;;;5035094;28;20047;-61
2023/11/25 09:36:56;;;;;;;7.30;2.78;;;;;;;;;;5041581;28;20137;-61
2023/11/25 09:39:24;;;;;;;;;;;;;;;;;;5057248;28;20110;-61
2023/11/25 09:41:51;;;;;;;4.82;0.90;;;;;;;;;;5035055;28;19925;-60
2023/11/25 09:44:21;;;;;;;5.13;0.85;;;;;;;;;;5021792;28;20049;-60
2023/11/25 09:46:49;;;;;;;8.05;1.05;;;;;;;;;;5033098;28;20053;-60
2023/11/25 09:49:17;;;;;;;2.58;1.08;;;;;;;;;;5051979;28;20064;-61
2023/11/25 09:51:46;;;;;;;5.60;1.73;;;;;;;;;;5061944;28;20052;-61
2023/11/25 09:54:27;;;;;;;2.55;0.70;;;;;;;;;;4982052;28;20058;-63
2023/11/25 09:56:55;;;;;;;0.75;0.40;;;;;;;;;;5028269;28;20059;-61
2023/11/25 09:59:25;;;;;;;2.72;0.57;;;;;;;;;;5040165;28;20060;-61
2023/11/25 10:01:52;;;;;;;3.83;0.65;;;;;;;;;;5038772;28;20109;-62
2023/11/25 10:04:19;;;;;;;1.85;0.65;;;;;;;;;;5005782;28;20125;-62
2023/11/25 10:06:54;;;;;;;3.13;0.65;;;;;;;;;;5039309;28;20060;-60
2023/11/25 10:09:21;;;;;;;2.45;0.73;;;;;;;;;;5041624;28;20065;-61
2023/11/25 10:11:58;;;;;;;;;;;;;;;;;;;;;
2023/11/25 10:14:31;;;;;;;3.50;0.60;;;;;;;;;;5016234;28;20064;-60
2023/11/25 10:16:57;;;;;;;8.13;1.08;;;;;;;;;;5037711;28;20133;-60
2023/11/25 10:19:27;;;;;;;3.10;1.10;;;;;;;;;;5056919;28;20125;-60
2023/11/25 10:21:54;;;;;;;4.60;0.95;;;;;;;;;;5041341;28;20044;-61
2023/11/25 10:24:22;;;;;;;4.57;1.17;;;;;;;;;;5036117;28;20056;-61
2023/11/25 10:26:50;;;;;;;3.63;0.70;;;;;;;;;;5052293;28;20159;-61
2023/11/25 10:29:19;;;;;;;;;;;;;;;;;;5040789;28;20106;-61
2023/11/25 10:31:58;;;;;;;0.85;0.43;;;;;;;;;;5055946;28;19963;-62
2023/11/25 10:34:26;;;;;;;1.10;0.52;;;;;;;;;;5002704;28;20111;-61
2023/11/25 10:36:55;;;;;;;3.30;0.70;;;;;;;;;;5040162;28;20064;-62
2023/11/25 10:39:24;;;;;;;5.93;0.80;;;;;;;;;;5069154;28;20056;-61
2023/11/25 10:41:52;;;;;;;5.38;0.88;;;;;;;;;;5039810;28;20058;-61
2023/11/25 10:44:19;;;;;;;7.83;0.67;;;;;;;;;;5034413;28;20129;-61
2023/11/25 10:46:48;;;;;;;2.10;0.50;;;;;;;;;;5056851;28;20303;-61
2023/11/25 10:49:16;;;;;;;5.95;0.50;;;;;;;;;;5060312;28;20078;-62
2023/11/25 10:51:43;;;;;;;;;;;;;;;;;;5051809;28;20056;-61
2023/11/25 10:54:11;;;;;;;10.00;1.05;;;;;;;;;;5030146;28;19940;-62
2023/11/25 10:56:39;;;;;;;5.85;1.90;;;;;;;;;;5058966;28;20115;-61
2023/11/25 10:59:06;;;;;;;2.50;0.53;;;;;;;;;;5038353;28;20075;-61
2023/11/25 11:01:40;;;;;;;3.83;0.50;;;;;;;;;;5037554;28;20056;-61
2023/11/25 11:04:19;;;;;;;3.03;0.43;;;;;;;;;;5011818;28;20060;-62
2023/11/25 11:06:49;;;;;;;2.55;0.80;;;;;;;;;;5050214;28;20067;-62
2023/11/25 11:09:20;;;;;;;6.45;0.60;;;;;;;;;;5035365;28;20056;-61
2023/11/25 11:11:51;;;;;;;1.90;0.55;;;;;;;;;;5037646;28;20059;-61
2023/11/25 11:14:21;;;;;;;6.22;1.10;;;;;;;;;;5023351;28;20067;-61
2023/11/25 11:17:03;;;;;;;3.15;0.95;;;;;;;;;;5036557;28;20102;-61
2023/11/25 11:19:36;;;;;;;7.75;1.63;;;;;;;;;;5062937;28;20064;-64
2023/11/25 11:22:08;;;;;;;6.65;1.25;;;;;;;;;;5051920;28;20083;-61
2023/11/25 11:24:48;;;;;;;2.22;0.60;;;;;;;;;;5036988;28;20075;-60
2023/11/25 11:27:24;;;;;;;7.72;0.95;;;;;;;;;;5054349;28;20049;-60
2023/11/25 11:29:58;;;;;;;12.93;4.35;;;;;;;;;;5040256;28;20053;-61
2023/11/25 11:32:33;;;;;;;3.92;0.52;;;;;;;;;;5033903;28;20257;-61
2023/11/25 11:35:02;;;;;;;6.63;0.80;;;;;;;;;;5034573;28;20095;-62
2023/11/25 11:37:37;;;;;;;1.23;0.57;;;;;;;;;;5036307;28;20162;-61
2023/11/25 11:40:06;;;;;;;9.93;1.25;;;;;;;;;;5043846;28;20053;-61
2023/11/25 11:42:34;;;;;;;8.20;0.93;;;;;;;;;;5035455;28;20072;-60
2023/11/25 11:45:15;;;;;;;4.55;1.25;;;;;;;;;;5042067;28;20155;-61
2023/11/25 11:47:45;;;;;;;23.73;8.70;;;;;;;;;;5038887;28;20060;-63
2023/11/25 11:50:18;;;;;;;4.47;0.77;;;;;;;;;;5051674;28;20044;-61
2023/11/25 11:52:49;;;;;;;5.22;0.55;;;;;;;;;;5057423;28;20059;-61
2023/11/25 11:55:34;;;;;;;3.50;0.73;;;;;;;;;;5023644;28;20384;-61
2023/11/25 11:58:06;;;;;;;2.80;0.63;;;;;;;;;;5036849;28;20048;-63
2023/11/25 12:00:37;;;;;;;1.00;0.35;;;;;;;;;;5040052;28;20072;-61
2023/11/25 12:03:04;;;;;;;2.80;0.75;;;;;;;;;;5048576;28;20144;-61
2023/11/25 12:05:32;;;;;;;3.72;0.75;;;;;;;;;;5016795;28;20135;-61
2023/11/25 12:08:30;;;;;;;1.63;0.90;;;;;;;;;;4997215;28;20077;-65
2023/11/25 12:10:58;;;;;;;4.03;0.85;;;;;;;;;;5056387;28;20075;-61
2023/11/25 12:13:25;;;;;;;2.33;0.70;;;;;;;;;;5058766;28;20114;-62
2023/11/25 12:15:59;;;;;;;5.05;0.82;;;;;;;;;;5040810;28;20056;-62
2023/11/25 12:18:26;;;;;;;7.88;0.90;;;;;;;;;;5037362;28;20060;-61
2023/11/25 12:20:54;;;;;;;8.88;1.15;;;;;;;;;;5042416;28;20203;-63
2023/11/25 12:23:21;;;;;;;0.90;0.52;;;;;;;;;;5071373;28;20037;-63
2023/11/25 12:25:47;;;;;;;12.23;1.48;;;;;;;;;;5052484;28;20044;-63
2023/11/25 12:28:14;;;;;;;16.20;1.35;;;;;;;;;;5058684;28;20067;-63
2023/11/25 12:30:42;;;;;;;10.98;1.33;;;;;;;;;;5037045;28;20055;-62
2023/11/25 12:33:10;;;;;;;15.18;1.88;;;;;;;;;;5062408;28;20064;-63
2023/11/25 12:35:38;;;;;;;2.92;0.65;;;;;;;;;;5034722;28;20048;-62
2023/11/25 12:38:08;;;;;;;13.35;1.20;;;;;;;;;;5061036;28;20132;-61
2023/11/25 12:40:36;;;;;;;3.67;0.90;;;;;;;;;;5043132;28;20045;-61
2023/11/25 12:43:06;;;;;;;8.37;0.97;;;;;;;;;;5063879;28;20071;-61
2023/11/25 12:45:35;;;;;;;1.38;0.60;;;;;;;;;;5042601;28;20333;-61
2023/11/25 12:48:04;;;;;;;3.55;0.55;;;;;;;;;;5043281;28;20056;-62
2023/11/25 12:50:30;;;;;;;;;;;;;;;;;;5044710;28;20076;-61
2023/11/25 12:53:10;;;;;;;11.20;1.60;;;;;;;;;;5036869;28;19920;-63
2023/11/25 12:55:38;;;;;;;5.65;0.75;;;;;;;;;;5043323;28;20060;-63
2023/11/25 12:58:07;;;;;;;15.85;0.93;;;;;;;;;;5040707;28;20049;-63
2023/11/25 13:00:35;;;;;;;0.10;0.10;;;;;;;;;;5040363;28;20115;-61
2023/11/25 13:03:03;;;;;;;5.15;0.85;;;;;;;;;;5051621;28;20112;-62
2023/11/25 13:05:35;;;;;;;5.30;0.65;;;;;;;;;;5044007;28;20063;-62
2023/11/25 13:08:27;;;;;;;6.65;1.25;;;;;;;;;;5039284;28;20048;-62
2023/11/25 13:10:57;;;;;;;0.50;0.50;;;;;;;;;;5003164;28;20060;-62
2023/11/25 13:13:25;;;;;;;6.28;0.93;;;;;;;;;;5034158;28;20045;-61
2023/11/25 13:15:52;;;;;;;7.78;1.63;;;;;;;;;;5062318;28;20071;-61
2023/11/25 13:18:27;;;;;;;8.07;1.00;;;;;;;;;;5055716;28;20052;-62
2023/11/25 13:20:55;;;;;;;7.05;0.82;;;;;;;;;;5003063;28;20056;-61
2023/11/25 13:23:30;;;;;;;6.97;0.73;;;;;;;;;;5046831;28;20078;-62
2023/11/25 13:25:57;;;;;;;3.97;0.75;;;;;;;;;;5034190;28;20244;-61
2023/11/25 13:28:25;;;;;;;2.03;0.50;;;;;;;;;;5055818;28;20082;-61
2023/11/25 13:30:52;;;;;;;7.50;1.10;;;;;;;;;;5029704;28;20083;-62
2023/11/25 13:38:42;;;;;;;4.78;1.13;;;;;;;;;;4975231;28;19932;-62
2023/11/25 13:41:11;;;;;;;10.52;1.92;;;;;;;;;;4899911;28;20141;-62
2023/11/25 13:43:38;;;;;;;6.65;1.90;;;;;;;;;;4972605;28;20058;-62
2023/11/25 13:46:05;;;;;;;3.58;0.82;;;;;;;;;;4972555;28;20065;-62
2023/11/25 13:48:32;;;;;;;6.50;1.05;;;;;;;;;;4976196;28;20146;-61
2023/11/25 13:50:58;;;;;;;2.88;0.68;;;;;;;;;;4959019;28;20199;-63
2023/11/25 13:53:25;;;;;;;5.60;0.90;;;;;;;;;;4964555;28;20050;-63
2023/11/25 13:55:58;;;;;;;0.77;0.60;;;;;;;;;;4978015;28;20054;-61
2023/11/25 13:58:25;;;;;;;3.00;0.70;;;;;;;;;;4971379;28;20119;-62
2023/11/25 14:00:53;;;;;;;4.85;0.70;;;;;;;;;;4972964;28;20057;-62
2023/11/25 14:03:19;;;;;;;9.33;0.80;;;;;;;;;;4960055;28;20104;-62
2023/11/25 14:05:46;;;;;;;5.43;0.70;;;;;;;;;;4958360;28;20082;-63
2023/11/25 14:08:15;;;;;;;7.68;1.10;;;;;;;;;;4951779;28;20062;-63
2023/11/25 14:10:44;;;;;;;6.57;0.85;;;;;;;;;;4972277;28;20060;-63
2023/11/25 14:13:13;;;;;;;;;;;;;;;;;;4981961;28;20061;-62
2023/11/25 14:15:40;;;;;;;5.78;0.80;;;;;;;;;;4978734;28;19948;-62
2023/11/25 14:18:10;;;;;;;9.30;1.30;;;;;;;;;;4971440;28;20066;-61
2023/11/25 14:20:36;;;;;;;5.22;1.10;;;;;;;;;;4960088;28;20077;-61
2023/11/25 14:23:04;;;;;;;3.45;0.95;;;;;;;;;;4960361;28;20062;-62
2023/11/25 14:25:31;;;;;;;7.38;0.95;;;;;;;;;;4978456;28;20129;-61
2023/11/25 14:28:01;;;;;;;3.47;0.50;;;;;;;;;;4975827;28;20058;-62
2023/11/25 14:30:32;;;;;;;0.82;0.38;;;;;;;;;;4906493;28;20066;-62
2023/11/25 14:32:59;;;;;;;3.22;0.90;;;;;;;;;;4948330;28;20096;-62
2023/11/25 14:35:26;;;;;;;8.55;1.05;;;;;;;;;;4956355;28;20122;-62
2023/11/25 14:37:55;;;;;;;6.68;0.90;;;;;;;;;;4975311;28;20073;-63
2023/11/25 14:40:23;;;;;;;4.75;0.80;;;;;;;;;;4949674;28;20051;-62
2023/11/25 14:42:50;;;;;;;1.25;0.50;;;;;;;;;;4957639;28;20058;-62
2023/11/25 14:45:19;;;;;;;4.43;0.82;;;;;;;;;;4958254;28;20073;-62
2023/11/25 14:47:47;;;;;;;3.63;0.90;;;;;;;;;;4974331;28;20069;-62
2023/11/25 14:50:14;;;;;;;5.28;0.88;;;;;;;;;;4940522;28;20307;-62
2023/11/25 14:52:41;;;;;;;10.85;2.10;;;;;;;;;;4973506;28;20121;-62
2023/11/25 14:55:08;;;;;;;11.60;1.70;;;;;;;;;;4961772;28;20054;-62
2023/11/25 14:57:37;;;;;;;4.55;1.02;;;;;;;;;;4958410;28;20054;-63
2023/11/25 15:00:09;;;;;;;4.13;0.55;;;;;;;;;;4925339;28;20152;-63